createdAt,value
2018-06-28T00:01:57.024Z,20.40
2018-06-28T00:04:26.599Z,22.40
2018-06-28T00:07:02.502Z,24.80
2018-06-28T00:09:55.660Z,21.70
2018-06-28T00:12:26.308Z,24.27
2018-06-28T00:15:06.818Z,20.60
2018-06-28T00:17:38.605Z,21.53
2018-06-28T00:20:07.344Z,23.23
2018-06-28T00:22:52.596Z,22.30
2018-06-28T00:25:31.120Z,25.73
2018-06-28T00:27:59.862Z,25.00
2018-06-28T00:33:22.361Z,22.43
2018-06-28T00:35:51.034Z,24.03
2018-06-28T00:38:21.606Z,24.13
2018-06-28T00:40:50.300Z,22.27
2018-06-28T00:43:22.652Z,23.07
2018-06-28T00:45:53.087Z,31.13
2018-06-28T00:48:23.764Z,25.43
2018-06-28T00:50:52.304Z,25.50
2018-06-28T00:53:33.318Z,28.47
2018-06-28T00:56:09.429Z,27.27
2018-06-28T00:58:45.205Z,24.67
2018-06-28T01:04:13.270Z,26.13
2018-06-28T01:06:47.177Z,24.33
2018-06-28T01:09:35.807Z,28.47
2018-06-28T01:12:04.517Z,28.93
2018-06-28T01:14:34.986Z,27.43
2018-06-28T01:17:06.769Z,25.40
2018-06-28T01:19:40.971Z,28.07
2018-06-28T01:22:09.382Z,30.67
2018-06-28T01:24:39.894Z,27.50
2018-06-28T01:27:08.396Z,26.33
2018-06-28T01:32:29.388Z,25.23
2018-06-28T01:35:04.459Z,26.93
2018-06-28T01:37:41.102Z,28.23
2018-06-28T01:40:19.948Z,29.37
2018-06-28T01:43:00.073Z,26.97
2018-06-28T01:45:50.802Z,28.77
2018-06-28T01:48:19.171Z,23.40
2018-06-28T01:50:54.702Z,26.87
2018-06-28T01:53:23.418Z,27.77
2018-06-28T01:55:58.318Z,30.67
2018-06-28T01:58:27.827Z,27.33
2018-06-28T02:01:03.882Z,25.67
2018-06-28T02:03:32.638Z,29.67
2018-06-28T02:06:01.398Z,28.83
2018-06-28T02:08:33.357Z,25.80
2018-06-28T02:11:03.002Z,26.63
2018-06-28T02:13:47.532Z,33.87
2018-06-28T02:16:28.847Z,26.57
2018-06-28T02:19:02.861Z,29.13
2018-06-28T02:21:38.841Z,29.63
2018-06-28T02:24:09.483Z,29.97
2018-06-28T02:26:49.700Z,27.30
2018-06-28T02:29:19.337Z,28.77
2018-06-28T02:32:02.170Z,30.33
2018-06-28T02:34:35.082Z,28.87
2018-06-28T02:37:04.762Z,23.97
2018-06-28T02:39:33.424Z,29.77
2018-06-28T02:42:02.257Z,30.40
2018-06-28T02:44:30.778Z,31.57
2018-06-28T02:46:59.426Z,30.27
2018-06-28T02:49:31.543Z,31.70
2018-06-28T02:52:09.381Z,24.17
2018-06-28T02:54:40.041Z,28.20
2018-06-28T02:57:09.548Z,26.07
2018-06-28T02:59:40.270Z,27.23
2018-06-28T03:02:08.760Z,31.93
2018-06-28T03:04:38.982Z,26.23
2018-06-28T03:07:08.660Z,25.70
2018-06-28T03:09:42.545Z,24.70
2018-06-28T03:12:14.354Z,27.97
2018-06-28T03:14:48.578Z,24.60
2018-06-28T03:17:20.157Z,28.27
2018-06-28T03:19:54.613Z,27.17
2018-06-28T03:22:23.274Z,28.33
2018-06-28T03:24:52.792Z,30.67
2018-06-28T03:27:43.882Z,32.97
2018-06-28T03:30:18.718Z,30.13
2018-06-28T03:32:53.070Z,25.60
2018-06-28T03:35:23.552Z,34.53
2018-06-28T03:37:52.307Z,32.53
2018-06-28T03:40:20.956Z,27.17
2018-06-28T03:42:55.404Z,32.13
2018-06-28T03:45:24.201Z,32.60
2018-06-28T03:47:53.724Z,32.00
2018-06-28T03:50:35.316Z,31.73
2018-06-28T03:53:05.146Z,27.63
2018-06-28T03:55:35.847Z,28.63
2018-06-28T03:58:06.300Z,33.10
2018-06-28T04:00:47.518Z,27.87
2018-06-28T04:03:19.328Z,29.70
2018-06-28T04:05:49.870Z,33.63
2018-06-28T04:08:19.478Z,33.33
2018-06-28T04:10:48.194Z,34.00
2018-06-28T04:13:23.648Z,30.57
2018-06-28T04:15:58.091Z,32.93
2018-06-28T04:18:47.060Z,37.87
2018-06-28T04:21:16.073Z,30.77
2018-06-28T04:23:44.745Z,30.63
2018-06-28T04:26:14.346Z,28.47
2018-06-28T04:28:43.024Z,30.37
2018-06-28T04:31:11.714Z,33.93
2018-06-28T04:33:40.360Z,29.87
2018-06-28T04:36:08.776Z,28.93
2018-06-28T04:38:38.332Z,32.00
2018-06-28T04:41:06.880Z,33.30
2018-06-28T04:43:36.456Z,39.77
2018-06-28T04:46:06.000Z,33.40
2018-06-28T04:48:34.806Z,35.50
2018-06-28T04:51:03.478Z,40.57
2018-06-28T04:53:32.100Z,37.83
2018-06-28T04:56:00.779Z,42.80
2018-06-28T04:58:30.378Z,44.20
2018-06-28T05:01:01.144Z,47.40
2018-06-28T05:03:29.838Z,43.77
2018-06-28T05:05:59.892Z,37.57
2018-06-28T05:08:28.546Z,42.23
2018-06-28T05:10:58.072Z,36.67
2018-06-28T05:13:26.740Z,39.67
2018-06-28T05:15:58.811Z,37.67
2018-06-28T05:18:27.663Z,36.80
2018-06-28T05:20:56.304Z,34.23
2018-06-28T05:23:26.131Z,32.90
2018-06-28T05:25:54.838Z,33.93
2018-06-28T05:28:24.386Z,34.07
2018-06-28T05:30:54.100Z,43.43
2018-06-28T05:33:22.747Z,31.63
2018-06-28T05:35:51.660Z,29.17
2018-06-28T05:38:21.066Z,28.90
2018-06-28T05:40:50.627Z,31.87
2018-06-28T05:43:24.485Z,27.07
2018-06-28T05:45:55.171Z,27.17
2018-06-28T05:48:29.567Z,27.47
2018-06-28T05:50:57.933Z,31.83
2018-06-28T05:53:26.628Z,24.13
2018-06-28T05:55:56.222Z,28.03
2018-06-28T05:58:40.575Z,31.37
2018-06-28T06:01:27.112Z,29.73
2018-06-28T06:04:00.100Z,26.10
2018-06-28T06:06:29.708Z,26.23
2018-06-28T06:09:00.263Z,34.20
2018-06-28T06:11:47.024Z,27.80
2018-06-28T06:14:27.988Z,27.03
2018-06-28T06:17:19.749Z,30.37
2018-06-28T06:19:49.387Z,24.30
2018-06-28T06:22:23.584Z,23.10
2018-06-28T06:24:54.062Z,26.40
2018-06-28T06:27:22.492Z,24.97
2018-06-28T06:29:57.030Z,25.80
2018-06-28T06:32:26.636Z,24.53
2018-06-28T06:34:57.182Z,25.57
2018-06-28T06:37:27.738Z,22.53
2018-06-28T06:42:59.117Z,24.67
2018-06-28T06:45:40.124Z,23.40
2018-06-28T06:48:26.888Z,26.83
2018-06-28T06:53:54.682Z,24.77
2018-06-28T06:56:31.400Z,24.47
2018-06-28T06:59:00.080Z,21.37
2018-06-28T07:01:31.575Z,26.67
2018-06-28T07:04:00.268Z,24.93
2018-06-28T07:06:29.006Z,22.20
2018-06-28T07:08:58.489Z,26.70
2018-06-28T07:11:29.047Z,26.20
2018-06-28T07:13:58.634Z,27.83
2018-06-28T07:16:32.928Z,23.43
2018-06-28T07:19:01.550Z,24.47
2018-06-28T07:21:41.013Z,22.77
2018-06-28T07:24:15.565Z,23.00
2018-06-28T07:26:47.323Z,23.40
2018-06-28T07:29:35.977Z,25.83
2018-06-28T07:32:12.919Z,24.47
2018-06-28T07:34:46.233Z,23.80
2018-06-28T07:37:33.645Z,24.67
2018-06-28T07:40:02.060Z,22.30
2018-06-28T07:42:40.204Z,21.60
2018-06-28T07:45:23.398Z,24.00
2018-06-28T07:47:54.785Z,25.17
2018-06-28T07:50:23.257Z,20.60
2018-06-28T07:52:53.744Z,19.20
2018-06-28T07:55:22.402Z,24.07
2018-06-28T07:57:50.792Z,22.10
2018-06-28T08:00:19.294Z,15.10
2018-06-28T08:02:47.852Z,24.93
2018-06-28T08:05:39.912Z,19.40
2018-06-28T08:08:13.802Z,17.40
2018-06-28T08:10:42.262Z,18.03
2018-06-28T08:13:12.722Z,14.90
2018-06-28T08:15:52.174Z,16.83
2018-06-28T08:18:35.297Z,16.97
2018-06-28T08:21:21.813Z,13.70
2018-06-28T08:23:51.382Z,11.73
2018-06-28T08:26:24.505Z,16.00
2018-06-28T08:29:00.829Z,12.90
2018-06-28T08:31:35.752Z,12.83
2018-06-28T08:34:04.426Z,18.83
2018-06-28T08:36:33.972Z,11.17
2018-06-28T08:39:12.104Z,10.07
2018-06-28T08:44:33.752Z,8.33
2018-06-28T08:50:11.921Z,8.83
2018-06-28T08:52:44.341Z,6.93
2018-06-28T08:55:13.041Z,7.70
2018-06-28T08:57:42.270Z,7.87
2018-06-28T09:00:12.025Z,6.23
2018-06-28T09:02:53.561Z,10.17
2018-06-28T09:05:36.319Z,5.93
2018-06-28T09:08:08.163Z,9.37
2018-06-28T09:10:39.883Z,6.83
2018-06-28T09:13:08.648Z,10.50
2018-06-28T09:15:36.829Z,5.13
2018-06-28T09:18:11.485Z,5.43
2018-06-28T09:20:42.868Z,3.37
2018-06-28T09:23:34.346Z,3.90
2018-06-28T09:26:04.003Z,7.30
2018-06-28T09:28:32.678Z,6.47
2018-06-28T09:31:07.767Z,5.70
2018-06-28T09:33:52.763Z,5.03
2018-06-28T09:36:32.540Z,4.60
2018-06-28T09:39:12.135Z,4.83
2018-06-28T09:41:44.038Z,6.27
2018-06-28T09:44:30.517Z,10.23
2018-06-28T09:47:05.311Z,6.40
2018-06-28T09:49:33.797Z,4.63
2018-06-28T09:52:05.845Z,6.23
2018-06-28T09:54:34.539Z,3.43
2018-06-28T09:57:21.274Z,8.53
2018-06-28T09:59:56.164Z,5.23
2018-06-28T10:02:24.750Z,4.60
2018-06-28T10:05:04.573Z,3.57
2018-06-28T10:10:42.739Z,4.27
2018-06-28T10:13:21.358Z,3.27
2018-06-28T10:15:49.993Z,3.70
2018-06-28T10:18:28.532Z,4.03
2018-06-28T10:21:04.882Z,5.87
2018-06-28T10:23:33.648Z,4.47
2018-06-28T10:26:02.224Z,3.53
2018-06-28T10:28:35.014Z,3.40
2018-06-28T10:31:08.503Z,5.53
2018-06-28T10:33:40.275Z,5.80
2018-06-28T10:36:16.647Z,3.83
2018-06-28T10:38:45.018Z,3.87
2018-06-28T10:41:14.643Z,3.67
2018-06-28T10:43:57.426Z,3.87
2018-06-28T10:46:35.341Z,5.67
2018-06-28T10:49:06.026Z,3.40
2018-06-28T10:54:21.778Z,4.90
2018-06-28T10:56:53.437Z,4.10
2018-06-28T11:02:20.502Z,6.20
2018-06-28T11:04:52.149Z,5.33
2018-06-28T11:07:36.773Z,4.27
2018-06-28T11:10:06.671Z,9.57
2018-06-28T11:12:51.916Z,4.90
2018-06-28T11:15:21.590Z,4.10
2018-06-28T11:17:51.134Z,3.87
2018-06-28T11:23:12.750Z,4.47
2018-06-28T11:25:42.398Z,7.27
2018-06-28T11:28:10.773Z,5.20
2018-06-28T11:30:52.662Z,9.10
2018-06-28T11:33:34.294Z,5.60
2018-06-28T11:36:06.223Z,4.97
2018-06-28T11:38:43.026Z,5.57
2018-06-28T11:41:12.688Z,4.63
2018-06-28T11:43:41.363Z,7.57
2018-06-28T11:46:10.931Z,5.20
2018-06-28T11:48:43.705Z,8.73
2018-06-28T11:51:29.137Z,11.93
2018-06-28T11:53:57.649Z,5.63
2018-06-28T11:59:23.577Z,9.90
2018-06-28T12:01:56.187Z,10.27
2018-06-28T12:04:25.809Z,7.00
2018-06-28T12:06:59.981Z,9.67
2018-06-28T12:09:51.455Z,6.63
2018-06-28T12:12:24.433Z,6.73
2018-06-28T12:15:02.621Z,6.70
2018-06-28T12:17:35.008Z,9.20
2018-06-28T12:20:10.115Z,7.20
2018-06-28T12:22:48.933Z,8.17
2018-06-28T12:25:37.037Z,9.87
2018-06-28T12:28:06.031Z,6.07
2018-06-28T12:30:35.906Z,6.97
2018-06-28T12:33:04.608Z,6.20
2018-06-28T12:35:37.675Z,6.57
2018-06-28T12:38:20.099Z,6.70
2018-06-28T12:40:51.902Z,8.37
2018-06-28T12:43:22.735Z,8.20
2018-06-28T12:45:51.385Z,5.70
2018-06-28T12:48:19.758Z,6.73
2018-06-28T12:50:49.443Z,9.03
2018-06-28T12:53:18.088Z,11.90
2018-06-28T12:56:23.058Z,5.63
2018-06-28T12:59:03.758Z,6.57
2018-06-28T13:01:33.381Z,5.97
2018-06-28T13:04:07.191Z,6.03
2018-06-28T13:06:41.172Z,7.87
2018-06-28T13:15:05.507Z,8.47
2018-06-28T13:17:35.020Z,5.43
2018-06-28T13:20:07.851Z,5.17
2018-06-28T13:22:41.627Z,5.47
2018-06-28T13:25:18.010Z,6.87
2018-06-28T13:27:52.785Z,4.97
2018-06-28T13:30:25.242Z,5.57
2018-06-28T13:33:00.951Z,5.97
2018-06-28T13:35:29.624Z,7.30
2018-06-28T13:37:59.240Z,5.10
2018-06-28T13:40:27.972Z,5.53
2018-06-28T13:42:56.629Z,5.87
2018-06-28T13:45:26.353Z,7.23
2018-06-28T13:47:54.869Z,4.57
2018-06-28T13:50:23.319Z,10.10
2018-06-28T13:52:52.033Z,5.00
2018-06-28T13:55:20.693Z,6.73
2018-06-28T13:57:49.879Z,6.63
2018-06-28T14:00:18.379Z,5.40
2018-06-28T14:02:47.133Z,5.53
2018-06-28T14:05:20.103Z,4.77
2018-06-28T14:07:50.632Z,4.90
2018-06-28T14:10:24.719Z,5.23
2018-06-28T14:12:59.618Z,6.83
2018-06-28T14:15:31.687Z,5.20
2018-06-28T14:18:13.234Z,4.73
2018-06-28T14:20:47.424Z,4.40
2018-06-28T14:23:24.123Z,8.53
2018-06-28T14:25:52.573Z,5.67
2018-06-28T14:31:19.074Z,5.63
2018-06-28T14:33:47.454Z,4.23
2018-06-28T14:36:35.814Z,5.87
2018-06-28T14:39:09.831Z,4.33
2018-06-28T14:41:58.734Z,4.60
2018-06-28T14:44:38.713Z,4.33
2018-06-28T14:47:14.577Z,4.53
2018-06-28T14:49:50.238Z,4.43
2018-06-28T14:52:18.677Z,4.70
2018-06-28T14:54:49.257Z,4.33
2018-06-28T14:57:17.859Z,4.80
2018-06-28T14:59:46.516Z,4.20
2018-06-28T15:02:17.107Z,6.37
2018-06-28T15:04:45.747Z,4.60
2018-06-28T15:07:14.592Z,4.97
2018-06-28T15:09:43.239Z,4.97
2018-06-28T15:12:21.357Z,4.40
2018-06-28T15:14:50.025Z,10.90
2018-06-28T15:20:11.687Z,4.17
2018-06-28T15:22:43.524Z,5.73
2018-06-28T15:25:13.190Z,5.50
2018-06-28T15:27:48.262Z,4.53
2018-06-28T15:30:22.487Z,5.27
2018-06-28T15:32:58.576Z,5.33
2018-06-28T15:35:28.172Z,5.87
2018-06-28T15:37:56.877Z,4.37
2018-06-28T15:40:29.418Z,5.43
2018-06-28T15:42:57.817Z,7.30
2018-06-28T15:45:26.519Z,4.83
2018-06-28T15:47:55.245Z,4.60
2018-06-28T15:50:23.857Z,4.40
2018-06-28T15:52:53.475Z,4.17
2018-06-28T15:55:28.022Z,5.47
2018-06-28T15:57:57.640Z,4.30
2018-06-28T16:00:26.320Z,4.27
2018-06-28T16:02:55.965Z,4.53
2018-06-28T16:05:24.677Z,4.80
2018-06-28T16:07:53.350Z,5.53
2018-06-28T16:10:22.131Z,5.20
2018-06-28T16:12:57.150Z,5.10
2018-06-28T16:15:25.813Z,7.97
2018-06-28T16:18:05.831Z,4.37
2018-06-28T16:20:39.564Z,7.27
2018-06-28T16:23:09.071Z,5.47
2018-06-28T16:28:30.189Z,4.00
2018-06-28T16:31:05.260Z,6.57
2018-06-28T16:33:34.905Z,6.03
2018-06-28T16:36:03.679Z,8.83
2018-06-28T16:38:32.443Z,8.53
2018-06-28T16:41:00.964Z,7.13
2018-06-28T16:43:29.721Z,5.43
2018-06-28T16:45:58.349Z,7.60
2018-06-28T16:48:26.521Z,9.50
2018-06-28T16:50:56.010Z,4.53
2018-06-28T16:53:35.437Z,5.10
2018-06-28T16:56:06.019Z,6.37
2018-06-28T16:58:35.559Z,3.90
2018-06-28T17:01:04.292Z,4.30
2018-06-28T17:03:32.957Z,6.10
2018-06-28T17:06:01.630Z,4.47
2018-06-28T17:08:31.283Z,6.77
2018-06-28T17:10:59.929Z,7.80
2018-06-28T17:13:33.855Z,3.93
2018-06-28T17:16:05.617Z,17.63
2018-06-28T17:18:37.985Z,4.03
2018-06-28T17:21:07.588Z,6.00
2018-06-28T17:23:42.088Z,6.03
2018-06-28T17:26:10.774Z,4.63
2018-06-28T17:28:42.833Z,4.07
2018-06-28T17:31:15.812Z,3.73
2018-06-28T17:33:45.065Z,6.87
2018-06-28T17:36:18.233Z,4.10
2018-06-28T17:38:52.328Z,4.90
2018-06-28T17:41:25.687Z,5.03
2018-06-28T17:43:56.277Z,3.90
2018-06-28T17:46:24.929Z,4.13
2018-06-28T17:48:59.138Z,4.70
2018-06-28T17:51:28.141Z,5.33
2018-06-28T17:53:56.787Z,6.00
2018-06-28T17:56:26.478Z,4.97
2018-06-28T17:58:56.041Z,4.30
2018-06-28T18:01:25.637Z,11.00
2018-06-28T18:03:56.167Z,4.83
2018-06-28T18:06:25.715Z,4.63
2018-06-28T18:08:54.620Z,4.20
2018-06-28T18:11:23.157Z,4.40
2018-06-28T18:13:53.829Z,5.30
2018-06-28T18:16:22.501Z,4.27
2018-06-28T18:18:51.033Z,4.00
2018-06-28T18:21:19.769Z,6.27
2018-06-28T18:23:48.446Z,4.17
2018-06-28T18:26:21.018Z,4.00
2018-06-28T18:28:49.805Z,5.80
2018-06-28T18:31:24.063Z,7.23
2018-06-28T18:34:09.257Z,11.47
2018-06-28T18:36:39.915Z,4.33
2018-06-28T18:39:13.631Z,5.20
2018-06-28T18:41:43.694Z,7.80
2018-06-28T18:44:17.366Z,4.73
2018-06-28T18:46:46.135Z,6.30
2018-06-28T18:49:15.992Z,4.93
2018-06-28T18:51:44.635Z,5.00
2018-06-28T18:54:13.122Z,9.20
2018-06-28T18:56:43.136Z,7.00
2018-06-28T18:59:16.308Z,5.63
2018-06-28T19:01:46.048Z,6.10
2018-06-28T19:04:20.353Z,5.50
2018-06-28T19:06:49.667Z,7.63
2018-06-28T19:09:37.872Z,6.27
2018-06-28T19:12:10.078Z,4.87
2018-06-28T19:14:49.898Z,7.97
2018-06-28T19:17:20.514Z,8.73
2018-06-28T19:19:55.627Z,7.87
2018-06-28T19:22:29.488Z,4.80
2018-06-28T19:25:00.202Z,11.73
2018-06-28T19:27:28.889Z,6.83
2018-06-28T19:30:06.497Z,4.90
2018-06-28T19:32:36.025Z,9.20
2018-06-28T19:35:07.825Z,9.23
2018-06-28T19:37:49.305Z,8.07
2018-06-28T19:40:24.449Z,8.10
2018-06-28T19:43:05.274Z,7.20
2018-06-28T19:45:50.240Z,7.33
2018-06-28T19:48:19.922Z,6.67
2018-06-28T19:51:04.151Z,6.90
2018-06-28T19:53:32.917Z,8.97
2018-06-28T19:56:13.717Z,8.53
2018-06-28T19:58:52.863Z,11.07
2018-06-28T20:01:29.630Z,7.23
2018-06-28T20:04:09.590Z,5.87
2018-06-28T20:06:39.412Z,5.57
2018-06-28T20:09:10.891Z,10.50
2018-06-28T20:11:40.862Z,8.63
2018-06-28T20:14:20.837Z,7.37
2018-06-28T20:16:58.001Z,6.03
2018-06-28T20:19:31.967Z,7.00
2018-06-28T20:22:06.716Z,6.07
2018-06-28T20:24:35.491Z,6.13
2018-06-28T20:27:11.529Z,7.80
2018-06-28T20:29:48.181Z,8.33
2018-06-28T20:32:24.415Z,10.00
2018-06-28T20:34:55.250Z,7.00
2018-06-28T20:37:23.742Z,6.60
2018-06-28T20:39:52.425Z,8.07
2018-06-28T20:45:15.417Z,9.83
2018-06-28T20:47:48.375Z,6.23
2018-06-28T20:50:19.123Z,9.53
2018-06-28T20:52:51.874Z,7.77
2018-06-28T20:55:26.329Z,7.17
2018-06-28T20:57:55.919Z,6.47
2018-06-28T21:00:26.523Z,10.50
2018-06-28T21:03:08.340Z,6.47
2018-06-28T21:05:44.205Z,8.07
2018-06-28T21:08:23.322Z,6.80
2018-06-28T21:10:52.152Z,7.47
2018-06-28T21:13:21.004Z,7.13
2018-06-28T21:15:51.801Z,7.10
2018-06-28T21:18:20.463Z,6.93
2018-06-28T21:20:49.147Z,9.87
2018-06-28T21:23:17.933Z,9.57
2018-06-28T21:25:47.443Z,10.30
2018-06-28T21:28:21.935Z,9.77
2018-06-28T21:30:51.684Z,7.80
2018-06-28T21:33:21.239Z,11.30
2018-06-28T21:35:49.914Z,11.07
2018-06-28T21:38:19.574Z,7.20
2018-06-28T21:40:51.315Z,9.23
2018-06-28T21:43:22.088Z,7.70
2018-06-28T21:45:50.817Z,8.10
2018-06-28T21:48:20.389Z,7.17
2018-06-28T21:50:53.623Z,6.93
2018-06-28T21:53:23.271Z,7.97
2018-06-28T21:56:03.865Z,10.20
2018-06-28T21:58:33.039Z,6.87
2018-06-28T22:01:06.581Z,6.97
2018-06-28T22:03:42.554Z,7.60
2018-06-28T22:06:12.224Z,8.40
2018-06-28T22:08:50.941Z,8.33
2018-06-28T22:11:21.512Z,9.10
2018-06-28T22:13:56.065Z,6.97
2018-06-28T22:16:24.742Z,8.73
2018-06-28T22:18:58.639Z,6.40
2018-06-28T22:21:32.614Z,7.07
2018-06-28T22:24:03.174Z,8.83
2018-06-28T22:26:33.652Z,6.07
2018-06-28T22:29:03.326Z,6.23
2018-06-28T22:31:31.918Z,5.83
2018-06-28T22:34:00.680Z,7.03
2018-06-28T22:36:29.294Z,5.40
2018-06-28T22:39:19.746Z,5.93
2018-06-28T22:41:49.441Z,6.23
2018-06-28T22:44:23.030Z,5.33
2018-06-28T22:46:51.148Z,4.63
2018-06-28T22:49:22.834Z,4.33
2018-06-28T22:52:01.912Z,4.60
2018-06-28T22:54:31.524Z,8.63
2018-06-28T22:57:00.283Z,4.57
2018-06-28T22:59:28.897Z,8.10
2018-06-28T23:02:02.854Z,4.83
2018-06-28T23:04:34.855Z,5.97
2018-06-28T23:07:04.601Z,4.40
2018-06-28T23:09:33.211Z,4.70
2018-06-28T23:12:02.819Z,6.70
2018-06-28T23:14:33.354Z,8.13
2018-06-28T23:17:08.116Z,5.47
2018-06-28T23:19:40.222Z,4.20
2018-06-28T23:22:15.871Z,4.80
2018-06-28T23:24:45.309Z,4.40
2018-06-28T23:27:14.927Z,10.43
2018-06-28T23:29:43.552Z,4.50
2018-06-28T23:32:16.681Z,5.73
2018-06-28T23:34:47.123Z,5.03
2018-06-28T23:37:25.365Z,6.27
2018-06-28T23:39:55.997Z,6.50
2018-06-28T23:42:41.117Z,9.47
2018-06-28T23:48:07.356Z,4.30
2018-06-28T23:50:41.893Z,5.20
2018-06-28T23:53:12.498Z,3.90
2018-06-28T23:55:54.617Z,3.70
2018-06-28T23:58:41.736Z,3.50
